createdAt,value
2022-12-16T00:01:27.241Z,10.89
2022-12-16T00:03:56.801Z,10.79
2022-12-16T00:06:29.687Z,10.81
2022-12-16T00:08:56.948Z,10.87
2022-12-16T00:11:24.070Z,10.90
2022-12-16T00:13:50.938Z,11.02
2022-12-16T00:16:20.478Z,11.18
2022-12-16T00:18:47.874Z,11.27
2022-12-16T00:21:15.493Z,11.24
2022-12-16T00:23:42.367Z,11.41
2022-12-16T00:26:09.554Z,11.35
2022-12-16T00:28:36.855Z,11.17
2022-12-16T00:31:04.490Z,11.05
2022-12-16T00:33:31.685Z,10.99
2022-12-16T00:35:59.012Z,10.91
2022-12-16T00:38:27.466Z,10.85
2022-12-16T00:40:54.350Z,10.79
2022-12-16T00:43:21.931Z,10.80
2022-12-16T00:45:49.096Z,10.63
2022-12-16T00:48:16.362Z,10.72
2022-12-16T00:50:55.108Z,10.71
2022-12-16T00:53:23.802Z,10.64
2022-12-16T00:55:50.729Z,10.79
2022-12-16T00:58:18.734Z,10.73
2022-12-16T01:00:45.515Z,10.82
2022-12-16T01:03:16.688Z,10.78
2022-12-16T01:05:46.415Z,10.77
2022-12-16T01:08:13.313Z,10.77
2022-12-16T01:10:40.008Z,10.78
2022-12-16T01:13:06.986Z,10.79
2022-12-16T01:15:33.725Z,10.78
2022-12-16T01:18:00.412Z,10.73
2022-12-16T01:20:27.243Z,10.75
2022-12-16T01:22:54.064Z,10.68
2022-12-16T01:25:21.708Z,10.70
2022-12-16T01:27:48.744Z,10.75
2022-12-16T01:30:15.572Z,10.70
2022-12-16T01:32:42.288Z,10.72
2022-12-16T01:35:29.463Z,10.74
2022-12-16T01:37:56.457Z,10.81
2022-12-16T01:40:25.064Z,10.79
2022-12-16T01:42:51.787Z,10.81
2022-12-16T01:45:25.539Z,10.80
2022-12-16T01:47:55.113Z,10.72
2022-12-16T01:50:22.383Z,10.67
2022-12-16T01:52:57.726Z,10.69
2022-12-16T01:55:34.514Z,10.74
2022-12-16T01:58:11.039Z,10.68
2022-12-16T02:00:39.043Z,10.71
2022-12-16T02:03:07.106Z,10.72
2022-12-16T02:05:38.592Z,10.77
2022-12-16T02:08:11.056Z,10.77
2022-12-16T02:10:43.753Z,10.72
2022-12-16T02:13:32.389Z,10.72
2022-12-16T02:16:07.822Z,10.74
2022-12-16T02:18:45.733Z,10.74
2022-12-16T02:21:45.012Z,10.79
2022-12-16T02:24:26.610Z,10.74
2022-12-16T02:27:21.050Z,10.66
2022-12-16T02:30:25.419Z,10.68
2022-12-16T02:33:19.499Z,10.66
2022-12-16T02:36:20.159Z,10.41
2022-12-16T02:39:05.458Z,10.53
2022-12-16T02:41:53.632Z,10.50
2022-12-16T02:44:34.374Z,10.54
2022-12-16T02:47:01.087Z,10.56
2022-12-16T02:49:27.724Z,10.60
2022-12-16T02:51:56.211Z,10.70
2022-12-16T02:54:23.828Z,10.64
2022-12-16T02:57:02.743Z,10.64
2022-12-16T03:00:04.819Z,10.62
2022-12-16T03:03:03.799Z,10.44
2022-12-16T03:05:40.999Z,10.47
2022-12-16T03:08:17.825Z,10.55
2022-12-16T03:10:53.747Z,10.58
2022-12-16T03:13:23.646Z,10.68
2022-12-16T03:15:53.564Z,10.76
2022-12-16T03:18:22.117Z,10.75
2022-12-16T03:21:03.320Z,10.79
2022-12-16T03:23:36.812Z,10.86
2022-12-16T03:26:08.571Z,10.91
2022-12-16T03:28:50.068Z,10.91
2022-12-16T03:31:47.868Z,10.83
2022-12-16T03:34:24.709Z,10.83
2022-12-16T03:36:57.738Z,10.85
2022-12-16T03:39:27.194Z,10.85
2022-12-16T03:41:55.044Z,10.84
2022-12-16T03:44:23.317Z,10.83
2022-12-16T03:46:50.217Z,10.83
2022-12-16T03:49:17.032Z,10.76
2022-12-16T03:51:43.928Z,10.85
2022-12-16T03:54:10.891Z,10.83
2022-12-16T03:56:37.584Z,10.81
2022-12-16T03:59:04.383Z,10.75
2022-12-16T04:01:31.174Z,10.75
2022-12-16T04:03:57.982Z,10.76
2022-12-16T04:06:24.865Z,10.62
2022-12-16T04:08:51.840Z,10.67
2022-12-16T04:11:37.121Z,10.68
2022-12-16T04:14:22.822Z,10.70
2022-12-16T04:17:08.548Z,10.71
2022-12-16T04:19:55.908Z,10.73
2022-12-16T04:22:48.533Z,10.73
2022-12-16T04:25:22.300Z,10.70
2022-12-16T04:27:49.143Z,10.72
2022-12-16T04:30:19.161Z,10.78
2022-12-16T04:33:26.928Z,10.66
2022-12-16T04:36:12.463Z,10.70
2022-12-16T04:38:58.039Z,10.68
2022-12-16T04:41:43.781Z,10.70
2022-12-16T04:44:29.366Z,10.64
2022-12-16T04:47:14.804Z,10.65
2022-12-16T04:50:00.447Z,10.70
2022-12-16T04:52:45.867Z,10.66
2022-12-16T04:55:31.162Z,10.62
2022-12-16T04:58:19.741Z,10.67
2022-12-16T05:01:06.244Z,10.64
2022-12-16T05:03:52.181Z,10.65
2022-12-16T05:06:38.240Z,10.63
2022-12-16T05:09:24.594Z,10.67
2022-12-16T05:12:09.954Z,10.64
2022-12-16T05:14:55.360Z,10.62
2022-12-16T05:17:40.835Z,10.56
2022-12-16T05:20:27.065Z,10.65
2022-12-16T05:23:14.768Z,10.66
2022-12-16T05:26:00.225Z,10.66
2022-12-16T05:28:45.675Z,10.72
2022-12-16T05:31:31.282Z,10.74
2022-12-16T05:34:16.978Z,10.75
2022-12-16T05:37:02.366Z,10.77
2022-12-16T05:39:47.805Z,10.82
2022-12-16T05:42:33.402Z,10.83
2022-12-16T05:45:18.902Z,10.91
2022-12-16T05:48:07.040Z,10.91
2022-12-16T05:50:52.537Z,10.94
2022-12-16T05:53:38.016Z,10.85
2022-12-16T05:56:23.737Z,10.90
2022-12-16T05:59:09.066Z,10.98
2022-12-16T06:01:54.643Z,11.03
2022-12-16T06:04:40.288Z,11.00
2022-12-16T06:07:25.494Z,11.00
2022-12-16T06:10:10.935Z,11.04
2022-12-16T06:12:56.447Z,11.06
2022-12-16T06:15:42.084Z,11.05
2022-12-16T06:18:27.720Z,11.06
2022-12-16T06:21:13.129Z,11.12
2022-12-16T06:23:58.796Z,11.17
2022-12-16T06:26:44.030Z,11.18
2022-12-16T06:29:29.544Z,11.20
2022-12-16T06:32:14.882Z,11.25
2022-12-16T06:35:00.392Z,11.27
2022-12-16T06:37:45.835Z,11.24
2022-12-16T06:40:45.142Z,11.24
2022-12-16T06:43:31.054Z,11.26
2022-12-16T06:46:16.835Z,11.26
2022-12-16T06:49:02.331Z,11.27
2022-12-16T06:51:47.977Z,11.27
2022-12-16T06:54:33.392Z,11.29
2022-12-16T06:57:19.037Z,11.30
2022-12-16T07:00:04.429Z,11.33
2022-12-16T07:02:50.073Z,11.22
2022-12-16T07:05:35.242Z,11.29
2022-12-16T07:08:20.653Z,11.26
2022-12-16T07:11:16.183Z,11.31
2022-12-16T07:14:03.113Z,11.29
2022-12-16T07:16:48.295Z,11.24
2022-12-16T07:19:34.488Z,11.30
2022-12-16T07:22:19.991Z,11.12
2022-12-16T07:25:05.412Z,11.27
2022-12-16T07:27:50.919Z,11.27
2022-12-16T07:30:37.622Z,11.27
2022-12-16T07:33:23.106Z,11.26
2022-12-16T07:36:08.803Z,11.22
2022-12-16T07:38:54.168Z,11.28
2022-12-16T07:41:39.859Z,11.19
2022-12-16T07:44:25.390Z,11.32
2022-12-16T07:47:10.913Z,11.35
2022-12-16T07:49:56.433Z,11.33
2022-12-16T07:52:43.776Z,11.33
2022-12-16T07:55:29.272Z,11.35
2022-12-16T07:58:14.968Z,11.39
2022-12-16T08:01:04.976Z,11.37
2022-12-16T08:03:53.271Z,11.39
2022-12-16T08:06:40.452Z,11.31
2022-12-16T08:09:25.958Z,11.42
2022-12-16T08:12:11.510Z,11.43
2022-12-16T08:14:57.305Z,11.39
2022-12-16T08:17:42.656Z,11.47
2022-12-16T08:20:28.257Z,11.46
2022-12-16T08:23:13.902Z,11.49
2022-12-16T08:25:59.456Z,11.49
2022-12-16T08:28:44.966Z,11.50
2022-12-16T08:31:30.434Z,11.48
2022-12-16T08:34:15.902Z,11.52
2022-12-16T08:37:01.620Z,11.47
2022-12-16T08:39:54.836Z,11.54
2022-12-16T08:42:52.421Z,11.54
2022-12-16T08:45:38.446Z,11.56
2022-12-16T08:48:24.332Z,11.59
2022-12-16T08:51:09.983Z,11.60
2022-12-16T08:53:55.426Z,11.67
2022-12-16T08:56:40.823Z,11.71
2022-12-16T08:59:26.317Z,11.76
2022-12-16T09:02:31.902Z,11.83
2022-12-16T09:05:17.425Z,11.84
2022-12-16T09:08:02.796Z,11.98
2022-12-16T09:10:48.181Z,12.11
2022-12-16T09:13:35.294Z,12.28
2022-12-16T09:16:21.064Z,12.48
2022-12-16T09:19:06.588Z,12.76
2022-12-16T09:21:52.660Z,13.27
2022-12-16T09:24:40.569Z,14.12
2022-12-16T09:27:25.980Z,15.35
2022-12-16T09:30:11.574Z,16.43
2022-12-16T09:33:04.194Z,17.10
2022-12-16T09:35:50.159Z,17.35
2022-12-16T09:38:36.680Z,17.09
2022-12-16T09:41:44.959Z,17.20
2022-12-16T09:44:48.919Z,17.48
2022-12-16T09:47:50.424Z,18.51
2022-12-16T09:50:45.996Z,20.18
2022-12-16T09:53:38.598Z,21.36
2022-12-16T09:56:29.155Z,21.85
2022-12-16T09:59:20.644Z,22.42
2022-12-16T10:02:06.281Z,21.87
2022-12-16T10:04:51.944Z,20.86
2022-12-16T10:07:40.104Z,19.95
2022-12-16T10:10:36.219Z,19.20
2022-12-16T10:13:27.127Z,18.60
2022-12-16T10:16:15.415Z,18.07
2022-12-16T10:19:39.740Z,17.58
2022-12-16T10:22:27.768Z,17.21
2022-12-16T10:25:25.170Z,16.93
2022-12-16T10:28:17.540Z,16.75
2022-12-16T10:31:02.880Z,16.67
2022-12-16T10:33:48.907Z,16.57
2022-12-16T10:36:41.432Z,16.69
2022-12-16T10:39:55.194Z,16.77
2022-12-16T10:42:48.305Z,17.25
2022-12-16T10:45:40.336Z,17.97
2022-12-16T10:48:30.014Z,17.84
2022-12-16T10:51:18.645Z,17.64
2022-12-16T10:54:08.814Z,17.60
2022-12-16T10:57:18.824Z,17.68
2022-12-16T11:00:03.841Z,18.98
2022-12-16T11:02:49.613Z,19.21
2022-12-16T11:05:47.336Z,19.16
2022-12-16T11:08:46.130Z,19.34
2022-12-16T11:11:46.564Z,19.55
2022-12-16T11:14:59.147Z,19.89
2022-12-16T11:17:47.973Z,21.59
2022-12-16T11:20:38.168Z,23.28
2022-12-16T11:23:42.472Z,24.35
2022-12-16T11:26:36.640Z,25.07
2022-12-16T11:29:22.169Z,25.00
2022-12-16T11:32:10.649Z,25.05
2022-12-16T11:34:56.137Z,24.71
2022-12-16T11:37:42.953Z,24.63
2022-12-16T11:40:35.861Z,24.53
2022-12-16T11:43:24.055Z,24.42
2022-12-16T11:46:11.673Z,24.44
2022-12-16T11:49:05.377Z,24.15
2022-12-16T11:51:59.747Z,24.73
2022-12-16T11:55:41.690Z,24.39
2022-12-16T11:58:27.453Z,23.69
2022-12-16T12:01:20.923Z,21.56
2022-12-16T12:04:08.940Z,20.74
2022-12-16T12:07:20.684Z,20.94
2022-12-16T12:10:39.788Z,22.14
2022-12-16T12:13:50.913Z,23.09
2022-12-16T12:16:57.181Z,23.84
2022-12-16T12:20:14.201Z,23.36
2022-12-16T12:22:59.629Z,22.70
2022-12-16T12:26:22.405Z,21.55
2022-12-16T12:29:25.136Z,21.38
2022-12-16T12:32:13.133Z,23.51
2022-12-16T12:35:43.207Z,24.41
2022-12-16T12:38:38.542Z,25.69
2022-12-16T12:41:42.656Z,26.81
2022-12-16T12:44:42.498Z,27.16
2022-12-16T12:47:35.886Z,27.52
2022-12-16T12:50:31.481Z,27.04
2022-12-16T12:53:32.905Z,24.33
2022-12-16T12:56:42.687Z,23.49
2022-12-16T12:59:39.363Z,22.59
2022-12-16T13:02:31.283Z,22.21
2022-12-16T13:05:23.996Z,22.17
2022-12-16T13:08:09.661Z,21.48
2022-12-16T13:10:56.764Z,20.26
2022-12-16T13:13:44.793Z,20.80
2022-12-16T13:16:46.425Z,20.52
2022-12-16T13:19:50.034Z,19.73
2022-12-16T13:22:55.039Z,19.62
2022-12-16T13:25:57.241Z,18.45
2022-12-16T13:28:46.818Z,17.88
2022-12-16T13:31:32.816Z,17.46
2022-12-16T13:34:24.583Z,17.23
2022-12-16T13:37:20.837Z,16.83
2022-12-16T13:40:39.043Z,16.35
2022-12-16T13:43:44.497Z,16.03
2022-12-16T13:46:35.523Z,15.82
2022-12-16T13:49:58.199Z,15.61
2022-12-16T13:53:05.609Z,15.62
2022-12-16T13:56:02.788Z,15.57
2022-12-16T13:59:07.158Z,15.53
2022-12-16T14:01:55.769Z,15.65
2022-12-16T14:04:52.469Z,15.64
2022-12-16T14:07:40.307Z,15.71
2022-12-16T14:10:41.583Z,15.95
2022-12-16T14:13:38.193Z,16.17
2022-12-16T14:16:32.631Z,16.14
2022-12-16T14:19:28.238Z,16.16
2022-12-16T14:22:26.367Z,16.14
2022-12-16T14:25:12.431Z,16.13
2022-12-16T14:27:58.870Z,16.08
2022-12-16T14:30:44.906Z,16.06
2022-12-16T14:33:40.734Z,15.93
2022-12-16T14:36:44.114Z,15.74
2022-12-16T14:39:49.975Z,15.98
2022-12-16T14:42:42.196Z,16.04
2022-12-16T14:45:48.241Z,16.08
2022-12-16T14:48:43.139Z,16.25
2022-12-16T14:51:41.870Z,16.34
2022-12-16T14:54:48.230Z,16.37
2022-12-16T14:57:47.895Z,16.40
2022-12-16T15:00:42.534Z,16.46
2022-12-16T15:04:00.353Z,16.52
2022-12-16T15:06:55.143Z,16.54
2022-12-16T15:09:55.887Z,16.57
2022-12-16T15:12:51.080Z,16.66
2022-12-16T15:15:51.679Z,16.63
2022-12-16T15:18:42.613Z,16.70
2022-12-16T15:21:28.257Z,16.74
2022-12-16T15:24:15.164Z,16.86
2022-12-16T15:27:01.006Z,16.93
2022-12-16T15:29:47.548Z,17.00
2022-12-16T15:32:44.613Z,17.04
2022-12-16T15:35:30.754Z,17.09
2022-12-16T15:38:16.116Z,17.07
2022-12-16T15:41:09.544Z,16.94
2022-12-16T15:43:58.570Z,16.70
2022-12-16T15:46:46.682Z,16.52
2022-12-16T15:49:41.009Z,16.31
2022-12-16T15:52:48.038Z,16.04
2022-12-16T15:55:42.417Z,15.95
2022-12-16T15:58:33.790Z,15.87
2022-12-16T16:01:19.956Z,15.82
2022-12-16T16:04:13.967Z,15.69
2022-12-16T16:07:08.803Z,15.34
2022-12-16T16:10:09.932Z,15.34
2022-12-16T16:12:55.571Z,15.22
2022-12-16T16:15:41.207Z,15.17
2022-12-16T16:18:28.906Z,15.15
2022-12-16T16:21:14.137Z,15.19
2022-12-16T16:24:00.160Z,15.11
2022-12-16T16:26:46.722Z,15.09
2022-12-16T16:29:32.166Z,15.03
2022-12-16T16:32:17.791Z,15.03
2022-12-16T16:35:03.267Z,14.94
2022-12-16T16:37:48.766Z,14.80
2022-12-16T16:40:40.976Z,14.90
2022-12-16T16:43:26.563Z,14.80
2022-12-16T16:46:14.196Z,14.80
2022-12-16T16:49:00.623Z,14.72
2022-12-16T16:51:46.785Z,14.66
2022-12-16T16:54:32.150Z,14.50
2022-12-16T16:57:19.774Z,14.52
2022-12-16T17:00:05.151Z,14.50
2022-12-16T17:02:50.797Z,14.44
2022-12-16T17:05:36.219Z,14.34
2022-12-16T17:08:21.733Z,14.38
2022-12-16T17:11:07.250Z,14.32
2022-12-16T17:13:52.822Z,14.19
2022-12-16T17:16:38.401Z,14.25
2022-12-16T17:19:24.214Z,14.23
2022-12-16T17:22:09.576Z,14.20
2022-12-16T17:24:55.170Z,14.13
2022-12-16T17:27:43.706Z,14.09
2022-12-16T17:30:46.935Z,13.98
2022-12-16T17:33:33.976Z,13.75
2022-12-16T17:36:20.100Z,13.99
2022-12-16T17:39:05.517Z,13.96
2022-12-16T17:41:52.544Z,13.97
2022-12-16T17:44:38.145Z,13.90
2022-12-16T17:47:23.766Z,13.88
2022-12-16T17:50:09.331Z,13.87
2022-12-16T17:52:55.389Z,13.83
2022-12-16T17:55:40.983Z,13.80
2022-12-16T17:58:26.608Z,13.74
2022-12-16T18:01:12.089Z,13.74
2022-12-16T18:03:57.763Z,13.77
2022-12-16T18:06:43.841Z,13.77
2022-12-16T18:09:29.416Z,13.69
2022-12-16T18:12:15.079Z,13.71
2022-12-16T18:15:00.390Z,13.78
2022-12-16T18:17:45.846Z,13.58
2022-12-16T18:20:31.312Z,13.78
2022-12-16T18:23:17.076Z,13.74
2022-12-16T18:26:02.657Z,13.76
2022-12-16T18:28:48.700Z,13.73
2022-12-16T18:31:34.408Z,13.67
2022-12-16T18:34:19.744Z,13.68
2022-12-16T18:37:05.307Z,13.70
2022-12-16T18:39:50.779Z,13.70
2022-12-16T18:42:36.414Z,13.67
2022-12-16T18:45:21.676Z,13.71
2022-12-16T18:48:07.080Z,13.72
2022-12-16T18:50:52.567Z,13.73
2022-12-16T18:53:42.225Z,13.68
2022-12-16T18:56:28.766Z,13.73
2022-12-16T18:59:14.423Z,13.70
2022-12-16T19:02:00.053Z,13.64
2022-12-16T19:04:45.283Z,13.61
2022-12-16T19:07:38.337Z,13.56
2022-12-16T19:10:24.409Z,13.59
2022-12-16T19:13:13.590Z,13.67
2022-12-16T19:15:59.121Z,13.69
2022-12-16T19:18:44.663Z,13.70
2022-12-16T19:21:30.262Z,13.84
2022-12-16T19:24:15.726Z,13.88
2022-12-16T19:27:01.903Z,14.03
2022-12-16T19:29:47.287Z,14.05
2022-12-16T19:32:33.033Z,13.95
2022-12-16T19:35:18.701Z,13.97
2022-12-16T19:38:04.189Z,13.95
2022-12-16T19:40:49.848Z,13.94
2022-12-16T19:43:35.273Z,13.87
2022-12-16T19:46:21.035Z,13.93
2022-12-16T19:49:06.545Z,13.94
2022-12-16T19:51:52.164Z,13.88
2022-12-16T19:54:37.737Z,13.85
2022-12-16T19:57:23.251Z,13.85
2022-12-16T20:00:08.743Z,13.71
2022-12-16T20:02:56.698Z,13.64
2022-12-16T20:05:42.464Z,13.64
2022-12-16T20:08:28.218Z,13.66
2022-12-16T20:11:13.705Z,13.71
2022-12-16T20:13:59.339Z,13.69
2022-12-16T20:16:44.827Z,13.62
2022-12-16T20:19:30.376Z,13.65
2022-12-16T20:22:16.577Z,13.68
2022-12-16T20:25:02.056Z,13.68
2022-12-16T20:27:47.589Z,13.63
2022-12-16T20:30:34.624Z,13.59
2022-12-16T20:33:20.178Z,13.63
2022-12-16T20:36:19.315Z,13.58
2022-12-16T20:39:05.340Z,13.60
2022-12-16T20:41:51.747Z,13.65
2022-12-16T20:44:45.043Z,13.65
2022-12-16T20:47:30.752Z,13.58
2022-12-16T20:50:16.235Z,13.66
2022-12-16T20:53:01.706Z,13.65
2022-12-16T20:55:47.301Z,13.64
2022-12-16T20:58:39.653Z,13.71
2022-12-16T21:01:25.257Z,13.80
2022-12-16T21:04:10.809Z,13.58
2022-12-16T21:06:56.305Z,13.74
2022-12-16T21:09:41.951Z,13.78
2022-12-16T21:12:27.561Z,13.67
2022-12-16T21:15:13.258Z,13.73
2022-12-16T21:17:58.468Z,13.70
2022-12-16T21:20:44.122Z,13.69
2022-12-16T21:23:29.954Z,13.65
2022-12-16T21:26:18.928Z,13.66
2022-12-16T21:29:05.555Z,13.64
2022-12-16T21:31:51.093Z,13.63
2022-12-16T21:34:39.154Z,13.63
2022-12-16T21:37:24.641Z,13.54
2022-12-16T21:40:09.988Z,13.51
2022-12-16T21:42:56.419Z,13.52
2022-12-16T21:45:41.653Z,13.48
2022-12-16T21:48:30.185Z,13.39
2022-12-16T21:51:15.822Z,13.39
2022-12-16T21:57:07.033Z,13.35
2022-12-16T22:00:09.227Z,13.33
2022-12-16T22:02:54.628Z,13.33
2022-12-16T22:05:41.897Z,13.31
2022-12-16T22:08:28.968Z,13.34
2022-12-16T22:11:16.600Z,13.34
2022-12-16T22:14:02.058Z,13.26
2022-12-16T22:16:47.776Z,13.38
2022-12-16T22:19:33.214Z,13.36
2022-12-16T22:22:18.805Z,13.35
2022-12-16T22:25:07.241Z,13.32
2022-12-16T22:27:58.348Z,13.31
2022-12-16T22:30:43.718Z,13.40
2022-12-16T22:33:31.053Z,13.36
2022-12-16T22:36:28.939Z,13.29
2022-12-16T22:39:14.589Z,13.46
2022-12-16T22:42:00.135Z,13.41
2022-12-16T22:44:45.670Z,13.32
2022-12-16T22:47:31.349Z,13.49
2022-12-16T22:50:16.587Z,13.42
2022-12-16T22:53:02.193Z,13.40
2022-12-16T22:56:07.655Z,13.40
2022-12-16T22:58:53.088Z,13.37
2022-12-16T23:01:42.038Z,13.38
2022-12-16T23:04:27.982Z,13.41
2022-12-16T23:07:13.839Z,13.40
2022-12-16T23:09:59.254Z,13.35
2022-12-16T23:12:44.866Z,13.35
2022-12-16T23:15:30.713Z,13.45
2022-12-16T23:18:16.333Z,13.47
2022-12-16T23:21:06.658Z,13.35
2022-12-16T23:23:52.452Z,13.38
2022-12-16T23:26:38.672Z,13.38
2022-12-16T23:29:24.328Z,13.39
2022-12-16T23:32:09.629Z,13.45
2022-12-16T23:34:55.000Z,13.51
2022-12-16T23:37:41.007Z,13.47
2022-12-16T23:40:27.203Z,13.49
2022-12-16T23:43:13.094Z,13.53
2022-12-16T23:45:58.641Z,13.61
2022-12-16T23:48:44.124Z,13.52
2022-12-16T23:51:29.675Z,13.64
2022-12-16T23:54:15.149Z,13.62
2022-12-16T23:57:00.681Z,13.49
2022-12-16T23:59:45.865Z,13.50
